KARB

Ann Arbor Municipal Airport

Ann Arbor, Michigan, USA
METAR KARB 201253Z 21005KT 5SM BR CLR 06/06 A2975 RMK AO2 SLP076 T00610061
Observed Flight Rules
Oct-20 @ 12:53 UTC (17 minutes ago) Marginal Visual Flight Rules
Wind Visibility Clouds Conditions
210° at 5 knots 5 miles
  • Clear skies
  • Mist
Temperatures Readings
Current 6°C / 43°F
Dewpoint 6°C / 43°F
Humidity 100%
Altimeter 29.75" Hg
Pressure 1007.6 hPa
Elevation 251
METAR KARB 201253Z 21005KT 5SM BR CLR 06/06 A2975 RMK AO2 SLP076 T00610061
Observed Flight Rules
Oct-20 @ 12:53 UTC
(17 minutes ago)
MVFR
Wind Visibility
210° at 5 knots 5 miles
Clouds
  • Clear skies
Conditions
  • Mist
Temperature Dewpoint
6°C / 43°F 6°C / 43°F
Humidity Altimeter Pressure
100% 29.75" Hg 1007.6 hPa